Time;durP1;ratioP1;P1;durP2;ratioP2;P2;SDS_P1;SDS_P2;PMS_P1;PMS_P2;Temp;Humidity;BMP_temperature;BMP_pressure;BME280_temperature;BME280_humidity;BME280_pressure;Samples;Min_cycle;Max_cycle;Signal;HPM_P1;HPM_P2
2021/06/07 00:00:38;;;;;;;180.20;169.57;;;15.70;99.90;;;;;;6166571;23;20465;-83
2021/06/07 00:03:07;;;;;;;153.87;144.27;;;15.80;99.90;;;;;;6164850;23;20411;-83
2021/06/07 00:05:37;;;;;;;147.63;137.60;;;15.70;99.90;;;;;;6166175;23;20491;-83
2021/06/07 00:08:04;;;;;;;141.57;132.27;;;15.80;99.90;;;;;;6166450;23;20956;-83
2021/06/07 00:10:37;;;;;;;148.63;139.23;;;15.70;99.90;;;;;;6166639;23;20484;-83
2021/06/07 00:13:06;;;;;;;140.10;130.90;;;15.70;99.90;;;;;;6156655;23;20405;-83
2021/06/07 00:15:35;;;;;;;137.50;128.10;;;15.70;99.90;;;;;;6166073;23;20894;-83
2021/06/07 00:18:04;;;;;;;142.90;133.10;;;15.80;99.90;;;;;;6155336;23;20398;-83
2021/06/07 00:20:38;;;;;;;156.13;144.87;;;15.70;99.90;;;;;;6154286;23;20576;-83
2021/06/07 00:23:09;;;;;;;153.20;142.97;;;15.80;99.90;;;;;;6156201;23;20810;-83
2021/06/07 00:25:36;;;;;;;149.50;139.83;;;15.70;99.90;;;;;;6156607;23;20406;-83
2021/06/07 00:28:02;;;;;;;130.17;121.27;;;15.70;99.90;;;;;;6156392;23;20438;-83
2021/06/07 00:30:31;;;;;;;111.47;103.27;;;15.70;99.90;;;;;;6156787;23;20402;-83
2021/06/07 00:32:57;;;;;;;109.70;101.37;;;15.70;99.90;;;;;;6155179;23;20406;-83
2021/06/07 00:35:25;;;;;;;132.63;123.17;;;15.70;99.90;;;;;;6156481;23;20406;-83
2021/06/07 00:37:54;;;;;;;137.30;128.13;;;15.70;99.90;;;;;;6165951;23;20951;-83
2021/06/07 00:40:24;;;;;;;122.87;114.57;;;15.70;99.90;;;;;;6156525;23;20449;-83
2021/06/07 00:43:00;;;;;;;123.57;115.17;;;15.70;99.90;;;;;;6166273;23;20413;-83
2021/06/07 00:45:30;;;;;;;125.67;116.83;;;15.70;99.90;;;;;;6165788;23;20444;-83
2021/06/07 00:48:00;;;;;;;124.93;116.43;;;15.60;99.90;;;;;;6154478;23;20426;-83
2021/06/07 00:50:34;;;;;;;136.27;127.57;;;15.70;99.90;;;;;;6156333;23;20541;-83
2021/06/07 00:53:02;;;;;;;150.63;141.27;;;15.60;99.90;;;;;;6165846;23;20406;-83
2021/06/07 00:55:35;;;;;;;164.07;154.67;;;15.50;99.90;;;;;;6156289;23;20941;-83
2021/06/07 00:58:03;;;;;;;171.20;161.43;;;15.40;99.90;;;;;;6155845;23;20893;-82
2021/06/07 01:00:29;;;;;;;164.97;155.17;;;15.50;99.90;;;;;;6165938;23;20406;-83
2021/06/07 01:02:57;;;;;;;169.60;160.17;;;15.50;99.90;;;;;;6154937;23;20410;-83
2021/06/07 01:05:24;;;;;;;153.57;144.17;;;15.40;99.90;;;;;;6155945;23;20484;-83
2021/06/07 01:07:53;;;;;;;169.60;159.13;;;15.40;99.90;;;;;;6165865;23;20866;-83
2021/06/07 01:10:22;;;;;;;157.10;147.50;;;15.50;99.90;;;;;;6156134;23;20424;-83
2021/06/07 01:12:49;;;;;;;149.90;140.03;;;15.50;99.90;;;;;;6155998;23;20406;-83
2021/06/07 01:15:16;;;;;;;155.70;146.07;;;15.50;99.90;;;;;;6156091;23;20402;-83
2021/06/07 01:17:42;;;;;;;144.07;134.77;;;15.40;99.90;;;;;;6164583;23;20422;-83
2021/06/07 01:20:13;;;;;;;136.33;127.20;;;15.50;99.90;;;;;;6165928;23;20413;-83
2021/06/07 01:22:45;;;;;;;98.83;91.37;;;15.50;99.90;;;;;;6155605;23;20434;-83
2021/06/07 01:25:13;;;;;;;96.63;88.97;;;15.60;99.90;;;;;;6155668;23;20952;-83
2021/06/07 01:27:40;;;;;;;103.50;95.57;;;15.60;99.90;;;;;;6165727;23;20436;-83
2021/06/07 01:30:10;;;;;;;114.47;105.57;;;15.60;99.90;;;;;;6155970;23;20408;-83
2021/06/07 01:32:38;;;;;;;131.00;121.97;;;15.50;99.90;;;;;;6154193;23;20963;-83
2021/06/07 01:35:06;;;;;;;133.63;124.57;;;15.50;99.90;;;;;;6165873;23;20402;-83
2021/06/07 01:37:32;;;;;;;130.90;122.03;;;15.50;99.90;;;;;;6165541;23;20422;-83
2021/06/07 01:40:03;;;;;;;118.57;110.17;;;15.50;99.90;;;;;;6165546;23;20476;-83
2021/06/07 01:42:29;;;;;;;140.03;130.17;;;15.50;99.90;;;;;;6155910;23;20408;-83
2021/06/07 01:44:56;;;;;;;182.33;171.67;;;15.50;99.90;;;;;;6155788;23;20433;-83
2021/06/07 01:47:22;;;;;;;168.33;157.83;;;15.40;99.90;;;;;;6164176;23;20410;-83
2021/06/07 01:49:49;;;;;;;187.90;177.03;;;15.50;99.90;;;;;;6155814;23;20406;-83
2021/06/07 01:52:15;;;;;;;216.73;205.60;;;15.50;99.90;;;;;;6155697;23;20429;-83
2021/06/07 01:54:42;;;;;;;214.13;203.13;;;15.40;99.90;;;;;;6155815;23;20402;-83
2021/06/07 01:57:11;;;;;;;263.93;251.53;;;15.40;99.90;;;;;;6165450;23;20436;-83
2021/06/07 01:59:37;;;;;;;233.13;221.60;;;15.30;99.90;;;;;;6155936;23;20406;-83
2021/06/07 02:02:06;;;;;;;225.47;213.77;;;15.30;99.90;;;;;;6155708;23;20433;-83
2021/06/07 02:04:33;;;;;;;203.37;191.87;;;15.30;99.90;;;;;;6154115;23;20423;-83
2021/06/07 02:07:01;;;;;;;209.00;198.00;;;15.30;99.90;;;;;;6155820;23;20402;-83
2021/06/07 02:09:27;;;;;;;155.83;146.10;;;15.30;99.90;;;;;;6155392;23;20557;-83
2021/06/07 02:11:54;;;;;;;133.17;124.07;;;15.30;99.90;;;;;;6155485;23;20401;-83
2021/06/07 02:14:22;;;;;;;129.23;120.33;;;15.30;99.90;;;;;;6155757;23;20402;-83
2021/06/07 02:16:49;;;;;;;132.47;123.50;;;15.30;99.90;;;;;;6165507;23;20406;-83
2021/06/07 02:19:16;;;;;;;160.27;150.60;;;15.30;99.90;;;;;;6154251;23;20410;-83
2021/06/07 02:21:44;;;;;;;176.17;165.80;;;15.10;99.90;;;;;;6165193;23;20450;-83
2021/06/07 02:24:11;;;;;;;238.40;227.00;;;15.20;99.90;;;;;;6165119;23;20418;-83
2021/06/07 02:26:38;;;;;;;284.70;271.17;;;14.90;99.90;;;;;;6155801;23;20493;-83
2021/06/07 02:29:07;;;;;;;339.57;325.30;;;14.80;99.90;;;;;;6155537;23;20445;-83
2021/06/07 02:31:35;;;;;;;384.77;369.03;;;14.80;99.90;;;;;;6165667;23;20889;-83
2021/06/07 02:34:05;;;;;;;413.10;395.80;;;14.70;99.90;;;;;;6163881;23;20418;-83
2021/06/07 02:36:36;;;;;;;460.57;441.97;;;14.60;99.90;;;;;;6165674;23;20457;-83
2021/06/07 02:39:08;;;;;;;451.10;432.40;;;14.60;99.90;;;;;;6155486;23;20708;-83
2021/06/07 02:41:37;;;;;;;453.27;434.60;;;14.50;99.90;;;;;;6155287;23;20402;-83
2021/06/07 02:44:06;;;;;;;485.90;466.73;;;14.50;99.90;;;;;;6155431;23;20440;-83
2021/06/07 02:46:32;;;;;;;484.03;465.20;;;14.40;99.90;;;;;;6165233;23;20408;-83
2021/06/07 02:49:04;;;;;;;491.90;472.33;;;14.40;99.90;;;;;;6154613;23;20441;-83
2021/06/07 02:51:37;;;;;;;495.50;475.20;;;14.30;99.90;;;;;;6157309;23;20401;-83
2021/06/07 02:54:07;;;;;;;516.10;494.00;;;14.10;99.90;;;;;;6157241;23;20476;-83
2021/06/07 02:56:36;;;;;;;523.33;501.03;;;14.00;99.90;;;;;;6167154;23;20424;-83
2021/06/07 02:59:03;;;;;;;520.67;498.83;;;14.00;99.90;;;;;;6166911;23;20406;-83
2021/06/07 03:01:35;;;;;;;524.03;502.10;;;13.90;99.90;;;;;;6167117;23;20437;-83
2021/06/07 03:04:05;;;;;;;520.10;497.60;;;13.90;99.90;;;;;;6155956;23;20405;-83
2021/06/07 03:06:33;;;;;;;518.10;495.90;;;13.80;99.90;;;;;;6157488;23;20882;-83
2021/06/07 03:09:09;;;;;;;514.33;490.20;;;13.80;99.90;;;;;;6157285;23;20524;-83
2021/06/07 03:11:36;;;;;;;505.63;481.63;;;13.60;99.90;;;;;;6166839;23;20432;-83
2021/06/07 03:14:05;;;;;;;499.30;477.20;;;13.60;99.90;;;;;;6166773;23;20409;-83
2021/06/07 03:16:33;;;;;;;494.10;472.43;;;13.60;99.90;;;;;;6157316;23;20452;-83
2021/06/07 03:18:59;;;;;;;473.80;452.97;;;13.60;99.90;;;;;;6155487;23;20944;-83
2021/06/07 03:21:30;;;;;;;479.27;458.10;;;13.50;99.90;;;;;;6156868;23;20437;-82
2021/06/07 03:23:58;;;;;;;488.80;467.83;;;13.40;99.90;;;;;;6157330;23;20401;-83
2021/06/07 03:26:24;;;;;;;488.53;467.23;;;13.40;99.90;;;;;;6156681;23;20402;-83
2021/06/07 03:28:51;;;;;;;485.07;462.53;;;13.30;99.90;;;;;;6157197;23;20442;-83
2021/06/07 03:31:18;;;;;;;483.60;462.80;;;13.30;99.90;;;;;;6166666;23;20413;-83
2021/06/07 03:33:44;;;;;;;487.10;465.10;;;13.20;99.90;;;;;;6165704;23;20414;-83
2021/06/07 03:36:11;;;;;;;484.77;461.93;;;13.20;99.90;;;;;;6166880;23;20410;-83
2021/06/07 03:38:39;;;;;;;470.73;446.97;;;13.20;99.90;;;;;;6166773;23;20413;-83
2021/06/07 03:41:07;;;;;;;474.57;452.50;;;13.20;99.90;;;;;;6156821;23;20409;-82
2021/06/07 03:43:36;;;;;;;477.63;454.03;;;13.10;99.90;;;;;;6157057;23;20444;-83
2021/06/07 03:46:02;;;;;;;472.30;449.23;;;13.10;99.90;;;;;;6157001;23;20403;-83
2021/06/07 03:48:29;;;;;;;459.10;437.20;;;13.00;99.90;;;;;;6143495;23;20441;-83
2021/06/07 03:51:00;;;;;;;455.73;434.13;;;13.10;99.90;;;;;;6156869;23;20402;-83
2021/06/07 03:53:28;;;;;;;447.77;427.70;;;13.00;99.90;;;;;;6156416;23;20413;-83
2021/06/07 03:55:58;;;;;;;466.70;442.80;;;13.00;99.90;;;;;;6156927;23;20493;-82
2021/06/07 03:58:26;;;;;;;462.27;441.23;;;12.90;99.90;;;;;;6156856;23;20488;-82
2021/06/07 04:00:53;;;;;;;460.60;438.77;;;12.90;99.90;;;;;;6156468;23;20405;-83
2021/06/07 04:03:27;;;;;;;454.03;432.10;;;12.90;99.90;;;;;;6165377;23;20413;-83
2021/06/07 04:05:54;;;;;;;446.93;425.93;;;13.00;99.90;;;;;;6156619;23;20394;-83
2021/06/07 04:08:22;;;;;;;445.07;424.67;;;13.00;99.90;;;;;;6156812;23;20445;-83
2021/06/07 04:10:49;;;;;;;448.67;426.70;;;12.90;99.90;;;;;;6166365;23;20417;-83
2021/06/07 04:13:17;;;;;;;452.00;430.73;;;12.90;99.90;;;;;;6156864;23;20409;-83
2021/06/07 04:15:43;;;;;;;434.40;412.50;;;12.90;99.90;;;;;;6156744;23;20412;-83
2021/06/07 04:18:10;;;;;;;426.43;406.77;;;13.00;99.90;;;;;;6164876;23;20406;-82
2021/06/07 04:20:39;;;;;;;419.60;399.70;;;12.90;99.90;;;;;;6156150;23;20402;-83
2021/06/07 04:23:07;;;;;;;443.47;421.20;;;13.00;99.90;;;;;;6156062;23;20441;-83
2021/06/07 04:25:34;;;;;;;427.37;406.37;;;13.10;99.90;;;;;;6156508;23;20437;-83
2021/06/07 04:28:01;;;;;;;436.63;414.30;;;13.20;99.90;;;;;;6156211;23;20948;-82
2021/06/07 04:30:34;;;;;;;438.60;416.23;;;13.30;99.90;;;;;;6166192;23;20402;-83
2021/06/07 04:33:04;;;;;;;445.43;422.83;;;13.40;99.90;;;;;;6155044;23;20742;-83
2021/06/07 04:35:30;;;;;;;457.87;433.50;;;13.40;99.90;;;;;;6156137;23;20402;-81
2021/06/07 04:37:57;;;;;;;465.23;441.13;;;13.40;99.90;;;;;;6156477;23;20452;-82
2021/06/07 04:40:25;;;;;;;475.17;449.80;;;13.50;99.90;;;;;;6156243;23;20722;-82
2021/06/07 04:42:51;;;;;;;494.37;467.90;;;13.60;99.90;;;;;;6165723;23;21007;-82
2021/06/07 04:45:19;;;;;;;492.00;465.70;;;13.60;99.90;;;;;;6156197;23;20406;-81
2021/06/07 04:47:48;;;;;;;496.87;470.27;;;13.70;99.90;;;;;;6153788;23;20418;-82
2021/06/07 04:50:16;;;;;;;501.10;474.60;;;13.70;99.90;;;;;;6156271;23;20770;-82
2021/06/07 04:52:57;;;;;;;497.97;471.50;;;13.70;99.90;;;;;;6155769;23;20912;-78
2021/06/07 04:55:26;;;;;;;511.10;483.00;;;13.70;99.90;;;;;;6155687;23;20457;-82
2021/06/07 04:57:52;;;;;;;500.70;473.30;;;13.80;99.90;;;;;;6156298;23;20402;-78
2021/06/07 05:00:21;;;;;;;511.10;483.40;;;13.80;99.90;;;;;;6155804;23;20479;-82
2021/06/07 05:02:50;;;;;;;512.67;484.03;;;13.80;99.90;;;;;;6154815;23;20417;-82
2021/06/07 05:05:18;;;;;;;515.70;486.43;;;13.90;99.90;;;;;;6156410;23;20425;-81
2021/06/07 05:07:44;;;;;;;514.53;486.40;;;14.00;99.90;;;;;;6165924;23;20413;-81
2021/06/07 05:10:12;;;;;;;507.10;480.90;;;14.10;99.90;;;;;;6156155;23;20409;-81
2021/06/07 05:12:38;;;;;;;510.90;483.10;;;14.20;99.90;;;;;;6165314;23;20418;-82
2021/06/07 05:15:07;;;;;;;512.13;483.40;;;14.40;99.90;;;;;;6155573;23;20908;-82
2021/06/07 05:17:34;;;;;;;513.60;484.90;;;14.50;99.90;;;;;;6164066;23;20428;-81
2021/06/07 05:20:03;;;;;;;512.00;485.10;;;14.70;99.90;;;;;;6165604;23;20463;-82
2021/06/07 05:22:30;;;;;;;496.40;469.60;;;14.80;99.90;;;;;;6155551;23;20441;-81
2021/06/07 05:24:56;;;;;;;502.47;475.93;;;14.80;99.90;;;;;;6156190;23;20402;-82
2021/06/07 05:27:22;;;;;;;498.87;474.63;;;14.90;99.90;;;;;;6165764;23;20441;-82
2021/06/07 05:29:49;;;;;;;474.77;453.43;;;14.90;99.90;;;;;;6155456;23;20473;-82
2021/06/07 05:32:15;;;;;;;486.33;463.60;;;15.00;99.90;;;;;;6165831;23;20414;-82
2021/06/07 05:34:43;;;;;;;484.90;463.03;;;15.00;99.90;;;;;;6154291;23;20456;-82
2021/06/07 05:37:11;;;;;;;496.00;474.30;;;15.20;99.90;;;;;;6165725;23;20406;-82
2021/06/07 05:39:38;;;;;;;488.90;467.13;;;15.30;99.90;;;;;;6165125;23;20413;-82
2021/06/07 05:42:05;;;;;;;412.83;395.63;;;15.40;99.90;;;;;;6155396;23;20461;-82
2021/06/07 05:44:34;;;;;;;401.17;382.73;;;15.50;99.90;;;;;;6155514;23;20493;-81
2021/06/07 05:47:00;;;;;;;382.40;365.60;;;15.70;99.90;;;;;;6165338;23;20406;-81
2021/06/07 05:49:27;;;;;;;308.17;292.73;;;15.80;99.90;;;;;;6153792;23;20438;-81
2021/06/07 05:51:53;;;;;;;112.93;103.40;;;16.00;99.90;;;;;;6165651;23;20421;-82
2021/06/07 05:54:21;;;;;;;71.20;57.47;;;15.90;99.90;;;;;;6155379;23;20776;-82
2021/06/07 05:56:54;;;;;;;76.07;50.27;;;15.90;99.90;;;;;;6155196;23;20409;-83
2021/06/07 05:59:23;;;;;;;71.40;43.00;;;15.90;99.90;;;;;;6155185;23;20409;-83
2021/06/07 06:01:51;;;;;;;63.47;34.57;;;16.00;99.90;;;;;;6155205;23;20424;-83
2021/06/07 06:04:17;;;;;;;67.33;31.90;;;16.10;99.90;;;;;;6111625;23;20898;-83
2021/06/07 06:06:44;;;;;;;67.37;29.67;;;16.10;99.90;;;;;;6164990;23;20735;-82
2021/06/07 06:09:10;;;;;;;64.80;33.50;;;16.10;99.90;;;;;;6154586;23;20434;-83
2021/06/07 06:11:41;;;;;;;63.73;29.83;;;16.30;99.90;;;;;;6155504;23;20722;-83
2021/06/07 06:14:11;;;;;;;63.67;33.27;;;16.50;99.90;;;;;;6164739;23;20410;-82
2021/06/07 06:16:40;;;;;;;63.67;30.50;;;16.30;99.90;;;;;;6155624;23;20461;-82
2021/06/07 06:19:06;;;;;;;64.10;32.17;;;16.30;99.90;;;;;;6153770;23;20437;-83
2021/06/07 06:21:37;;;;;;;61.00;30.43;;;16.30;99.90;;;;;;6164569;23;20445;-82
2021/06/07 06:24:04;;;;;;;66.93;31.77;;;16.50;99.90;;;;;;6157198;23;20735;-82
2021/06/07 06:29:38;;;;;;;60.57;26.47;;;16.50;99.90;;;;;;6091903;23;20453;-83
2021/06/07 06:32:05;;;;;;;58.03;26.13;;;16.60;99.90;;;;;;6157195;23;20488;-80
2021/06/07 06:34:58;;;;;;;61.37;27.77;;;16.60;99.90;;;;;;6155775;23;20432;-83
2021/06/07 06:37:30;;;;;;;62.13;26.80;;;16.60;99.90;;;;;;6167019;23;20405;-84
2021/06/07 06:42:46;;;;;;;;;;;;;;;;;;;;;
2021/06/07 06:48:47;;;;;;;56.07;21.70;;;16.60;99.90;;;;;;6179675;23;20438;-82
2021/06/07 06:55:11;;;;;;;54.67;22.50;;;16.80;99.90;;;;;;6138762;23;20412;-83
2021/06/07 06:57:57;;;;;;;;;;;;;;;;;;;;;
2021/06/07 07:00:56;;;;;;;53.97;20.00;;;16.80;99.90;;;;;;6121342;23;20415;-82
2021/06/07 07:03:26;;;;;;;56.43;21.60;;;16.70;99.90;;;;;;6071612;23;20791;-82
2021/06/07 07:05:55;;;;;;;63.10;24.33;;;16.70;99.90;;;;;;6133992;23;20444;-81
2021/06/07 07:08:46;;;;;;;;;;;;;;;;;;;;;
2021/06/07 07:11:51;;;;;;;;;;;;;;;;;;;;;
2021/06/07 07:17:09;;;;;;;63.47;23.77;;;17.20;99.90;;;;;;6119404;23;20742;-85
2021/06/07 07:19:59;;;;;;;57.03;21.00;;;17.40;99.90;;;;;;6185984;23;20725;-82
2021/06/07 07:22:36;;;;;;;50.63;18.47;;;17.60;99.90;;;;;;6197117;23;20405;-83
2021/06/07 07:28:41;;;;;;;66.00;20.03;;;17.70;99.90;;;;;;5915105;24;20948;-79
2021/06/07 07:31:09;;;;;;;70.40;21.83;;;18.00;99.90;;;;;;5963084;24;20412;-80
2021/06/07 07:34:06;;;;;;;69.40;24.30;;;18.30;99.90;;;;;;5968552;23;20404;-83
2021/06/07 07:36:56;;;;;;;68.63;21.60;;;18.30;99.90;;;;;;6039641;23;20411;-83
2021/06/07 07:40:05;;;;;;;75.50;26.70;;;18.40;99.90;;;;;;6104880;23;20490;-87
2021/06/07 07:46:11;;;;;;;79.53;29.77;;;18.20;99.90;;;;;;6009083;23;20430;-83
2021/06/07 07:48:57;;;;;;;;;;;;;;;;;;;;;
2021/06/07 07:52:22;;;;;;;;;;;;;;;;;;;;;
2021/06/07 07:55:00;;;;;;;66.57;23.10;;;18.60;99.90;;;;;;6183526;23;20412;-83
2021/06/07 07:58:10;;;;;;;;;;;;;;;;;;;;;
2021/06/07 08:01:09;;;;;;;73.67;26.47;;;18.70;99.90;;;;;;6089995;23;20415;-83
2021/06/07 08:19:49;;;;;;;66.53;23.83;;;18.80;99.90;;;;;;6001512;23;20415;-79
2021/06/07 08:23:04;;;;;;;64.07;22.43;;;18.90;99.90;;;;;;6123840;23;20399;-83
2021/06/07 08:25:40;;;;;;;69.37;24.43;;;18.90;99.90;;;;;;6157315;23;20409;-89
2021/06/07 08:31:57;;;;;;;72.50;26.00;;;18.90;99.90;;;;;;6021846;23;20438;-83
2021/06/07 08:34:47;;;;;;;61.60;23.03;;;18.70;99.90;;;;;;6184966;23;20153;-83
2021/06/07 08:38:02;;;;;;;;;;;;;;;;;;;;;
2021/06/07 08:40:53;;;;;;;71.33;26.40;;;19.20;99.90;;;;;;6180018;23;20416;-84
2021/06/07 08:43:55;;;;;;;;;;;;;;;;;;;;;
2021/06/07 09:00:11;;;;;;;81.80;32.53;;;20.70;88.70;;;;;;6008651;23;20418;-85
2021/06/07 10:00:52;;;;;;;;;;;;;;;;;;;;;
2021/06/07 10:10:21;;;;;;;;;;;;;;;;;;;;;
2021/06/07 10:13:33;;;;;;;62.40;21.57;;;20.10;89.00;;;;;;5967038;24;20423;-83
2021/06/07 10:41:41;;;;;;;65.30;22.67;;;20.50;91.80;;;;;;5831443;24;20508;-82
2021/06/07 10:58:32;;;;;;;;;;;;;;;;;;;;;
2021/06/07 11:01:42;;;;;;;66.00;19.97;;;20.20;92.90;;;;;;5796134;24;20516;-83
2021/06/07 11:11:48;;;;;;;55.50;16.40;;;19.90;95.10;;;;;;5821871;24;20430;-84
2021/06/07 11:14:22;;;;;;;55.20;16.90;;;19.80;91.20;;;;;;5939654;23;20409;-82
2021/06/07 11:16:58;;;;;;;56.80;18.10;;;19.80;85.80;;;;;;6047673;23;20417;-84
2021/06/07 11:19:25;;;;;;;55.20;18.03;;;19.80;95.00;;;;;;6046508;23;20730;-85
2021/06/07 11:25:32;;;;;;;51.27;18.00;;;19.80;95.00;;;;;;6047720;23;20432;-82
2021/06/07 11:28:37;;;;;;;53.43;17.23;;;19.80;93.20;;;;;;6038053;23;20496;-82
2021/06/07 11:34:56;;;;;;;48.90;13.87;;;20.10;90.30;;;;;;6051089;23;20879;-82
2021/06/07 11:38:07;;;;;;;;;;;;;;;;;;;;;
2021/06/07 11:51:10;;;;;;;;;;;;;;;;;;;;;
2021/06/07 11:54:03;;;;;;;46.87;12.50;;;20.50;70.40;;;;;;6023024;23;20461;-83
2021/06/07 12:00:07;;;;;;;46.70;10.07;;;21.20;64.30;;;;;;6163498;23;20924;-83
2021/06/07 12:13:21;;;;;;;;;;;;;;;;;;;;;
2021/06/07 12:22:15;;;;;;;;;;;;;;;;;;;;;
2021/06/07 12:28:42;;;;;;;46.67;11.17;;;20.70;62.00;;;;;;5939203;24;20793;-82
2021/06/07 12:31:53;;;;;;;;;;;;;;;;;;;;;
2021/06/07 12:35:10;;;;;;;;;;;;;;;;;;;;;
2021/06/07 12:38:12;;;;;;;45.47;11.57;;;21.00;59.70;;;;;;5930905;24;20502;-82
2021/06/07 12:47:01;;;;;;;46.30;9.43;;;20.90;62.70;;;;;;6036885;23;20415;-82
2021/06/07 12:50:16;;;;;;;;;;;;;;;;;;;;;
2021/06/07 13:06:18;;;;;;;;;;;;;;;;;;;;;
2021/06/07 13:09:06;;;;;;;52.90;15.63;;;21.20;49.70;;;;;;6087851;23;20414;-82
2021/06/07 13:18:11;;;;;;;50.13;12.30;;;21.10;46.30;;;;;;6131165;23;20429;-82
2021/06/07 13:21:18;;;;;;;57.50;11.70;;;21.30;40.60;;;;;;6166104;23;20414;-82
2021/06/07 13:24:40;;;;;;;;;;;;;;;;;;;;;
2021/06/07 13:28:02;;;;;;;50.60;10.70;;;21.20;43.20;;;;;;6147737;23;20418;-83
2021/06/07 13:31:08;;;;;;;51.17;11.43;;;21.10;44.60;;;;;;6120748;23;20525;-82
2021/06/07 13:37:04;;;;;;;50.13;9.73;;;21.40;46.30;;;;;;6075334;23;20408;-82
2021/06/07 13:39:59;;;;;;;49.70;11.20;;;21.40;45.70;;;;;;6065509;23;20440;-82
2021/06/07 13:43:11;;;;;;;;;;;;;;;;;;;;;
2021/06/07 13:46:39;;;;;;;;;;;;;;;;;;;;;
2021/06/07 13:49:41;;;;;;;51.40;11.07;;;21.70;45.90;;;;;;6193905;23;20471;-80
2021/06/07 13:52:13;;;;;;;56.57;10.53;;;21.80;35.10;;;;;;6195206;23;21002;-80
2021/06/07 13:54:53;;;;;;;55.67;10.73;;;22.60;36.20;;;;;;6195388;23;20420;-80
2021/06/07 13:57:21;;;;;;;59.83;11.90;;;22.50;35.00;;;;;;6185757;23;20725;-81
2021/06/07 13:59:49;;;;;;;62.67;10.30;;;22.90;32.10;;;;;;6195362;23;20475;-80
2021/06/07 14:02:29;;;;;;;56.37;9.47;;;22.80;28.60;;;;;;6195342;23;20405;-80
2021/06/07 14:15:30;;;;;;;55.90;9.47;;;22.90;26.70;;;;;;6012120;23;20794;-87
2021/06/07 14:24:46;;;;;;;57.90;9.77;;;22.80;24.90;;;;;;5788820;24;21031;-87
2021/06/07 14:46:25;;;;;;;58.70;9.47;;;23.60;24.20;;;;;;5760499;24;20440;-87
2021/06/07 14:54:52;;;;;;;60.17;9.80;;;23.30;22.10;;;;;;5725383;24;20413;-80
2021/06/07 14:57:39;;;;;;;57.27;9.00;;;23.50;23.20;;;;;;5890332;24;20425;-79
2021/06/07 15:00:12;;;;;;;58.73;9.23;;;24.20;19.90;;;;;;6002382;23;20477;-80
2021/06/07 15:02:39;;;;;;;58.60;7.87;;;23.80;21.20;;;;;;6036269;23;20484;-79
2021/06/07 15:05:24;;;;;;;58.93;8.13;;;23.80;23.40;;;;;;6047917;23;20406;-79
2021/06/07 15:07:52;;;;;;;57.30;8.40;;;23.80;18.70;;;;;;6047859;23;20413;-79
2021/06/07 15:10:26;;;;;;;61.70;9.10;;;23.80;22.40;;;;;;6038273;23;20460;-79
2021/06/07 15:12:53;;;;;;;59.23;8.97;;;23.60;19.30;;;;;;6151021;23;20453;-80
2021/06/07 15:15:25;;;;;;;59.00;8.30;;;24.00;20.60;;;;;;6167201;23;20730;-80
2021/06/07 15:18:04;;;;;;;62.40;9.07;;;23.60;21.60;;;;;;6148976;23;21044;-79
2021/06/07 15:23:15;;;;;;;58.23;9.50;;;23.50;21.20;;;;;;6155991;23;20480;-80
2021/06/07 15:25:43;;;;;;;57.30;8.90;;;23.00;18.90;;;;;;6166533;23;20917;-80
2021/06/07 15:28:20;;;;;;;;;;;;;;;;;;;;;
2021/06/07 15:30:50;;;;;;;55.30;7.90;;;23.10;19.90;;;;;;6166883;23;20457;-80
2021/06/07 15:33:32;;;;;;;58.70;8.23;;;22.70;20.30;;;;;;6165305;23;20421;-80
2021/06/07 15:36:09;;;;;;;55.33;8.40;;;22.70;23.10;;;;;;6166572;23;20493;-81
2021/06/07 15:38:41;;;;;;;56.37;8.50;;;22.70;21.90;;;;;;6156706;23;20402;-80
2021/06/07 15:41:31;;;;;;;56.00;7.60;;;22.80;25.50;;;;;;6156885;23;20402;-81
2021/06/07 15:44:06;;;;;;;55.40;8.33;;;22.90;24.40;;;;;;6166854;23;20410;-81
2021/06/07 15:46:40;;;;;;;57.43;7.50;;;22.90;20.90;;;;;;6166730;23;20440;-80
2021/06/07 15:49:17;;;;;;;57.30;8.40;;;23.00;25.10;;;;;;6155605;23;20409;-80
2021/06/07 15:52:11;;;;;;;54.90;7.40;;;22.70;25.50;;;;;;6166512;23;20449;-80
2021/06/07 15:54:42;;;;;;;54.80;6.77;;;22.20;24.60;;;;;;6166700;23;20702;-80
2021/06/07 15:57:11;;;;;;;57.17;7.03;;;22.20;25.60;;;;;;6166928;23;20425;-80
2021/06/07 15:59:54;;;;;;;;;;;;;;;;;;;;;
2021/06/07 16:02:41;;;;;;;54.97;6.70;;;22.20;24.70;;;;;;6154856;23;20760;-86
2021/06/07 16:12:41;;;;;;;53.10;6.73;;;21.50;35.60;;;;;;6117371;23;20417;-87
2021/06/07 16:18:58;;;;;;;53.60;6.80;;;21.90;37.10;;;;;;6092380;23;20419;-87
2021/06/07 16:21:59;;;;;;;52.90;7.60;;;21.60;29.40;;;;;;6054180;23;20931;-85
2021/06/07 16:25:01;;;;;;;53.00;6.60;;;21.50;31.00;;;;;;6105596;23;20638;-86
2021/06/07 16:28:03;;;;;;;;;;;;;;;;;;;;;
2021/06/07 16:31:07;;;;;;;56.13;7.57;;;21.70;33.10;;;;;;6187093;23;20451;-85
2021/06/07 16:33:36;;;;;;;52.43;6.20;;;21.50;33.70;;;;;;6203619;23;20877;-84
2021/06/07 16:36:37;;;;;;;52.47;6.50;;;21.40;41.90;;;;;;6200267;23;20438;-89
2021/06/07 16:39:27;;;;;;;;;;;;;;;;;;;;;
2021/06/07 16:42:15;;;;;;;56.33;7.57;;;21.20;41.50;;;;;;6200495;23;20397;-84
2021/06/07 16:44:48;;;;;;;54.77;7.70;;;21.20;38.40;;;;;;6199339;23;20420;-86
2021/06/07 16:50:44;;;;;;;54.07;8.37;;;21.50;41.70;;;;;;6180014;23;20439;-88
2021/06/07 16:53:16;;;;;;;54.67;8.50;;;21.80;35.80;;;;;;6182111;23;20436;-85
2021/06/07 16:56:13;;;;;;;55.90;9.30;;;22.00;35.10;;;;;;6198866;23;20405;-87
2021/06/07 16:58:56;;;;;;;55.40;8.77;;;22.20;35.60;;;;;;6198367;23;20440;-85
2021/06/07 17:01:32;;;;;;;52.40;8.50;;;22.30;28.70;;;;;;6195987;23;20460;-84
2021/06/07 17:04:14;;;;;;;53.50;8.73;;;22.50;27.90;;;;;;6194354;23;20786;-84
2021/06/07 17:06:52;;;;;;;54.50;8.60;;;23.20;31.30;;;;;;6195574;23;20487;-85
2021/06/07 17:09:45;;;;;;;53.20;7.90;;;24.40;22.90;;;;;;6195649;23;20571;-83
2021/06/07 17:12:41;;;;;;;;;;;;;;;;;;;;;
2021/06/07 17:15:23;;;;;;;52.30;8.07;;;23.60;22.10;;;;;;6159095;23;20723;-84
2021/06/07 17:18:51;;;;;;;54.27;8.50;;;23.20;22.60;;;;;;6194232;23;20941;-84
2021/06/07 17:25:31;;;;;;;;;;;;;;;;;;;;;
2021/06/07 17:32:12;;;;;;;51.90;8.63;;;25.40;19.00;;;;;;5927407;24;20536;-86
2021/06/07 17:41:29;;;;;;;;;;;;;;;;;;;;;
2021/06/07 17:44:24;;;;;;;56.47;10.27;;;27.70;8.50;;;;;;6046335;23;20429;-86
2021/06/07 17:47:00;;;;;;;58.60;9.57;;;27.30;4.60;;;;;;6028934;23;20417;-84
2021/06/07 17:49:32;;;;;;;57.30;10.90;;;27.40;4.50;;;;;;6165644;23;20416;-85
2021/06/07 17:52:17;;;;;;;58.03;10.93;;;25.90;8.00;;;;;;6195700;23;20928;-84
2021/06/07 17:55:10;;;;;;;57.80;12.70;;;25.90;9.00;;;;;;6185715;23;20408;-86
2021/06/07 18:01:27;;;;;;;57.93;12.13;;;28.00;6.70;;;;;;6195807;23;20397;-84
2021/06/07 18:04:23;;;;;;;56.93;11.17;;;28.40;5.50;;;;;;6181417;23;20440;-85
2021/06/07 18:10:05;;;;;;;57.67;12.37;;;28.30;2.20;;;;;;6183071;23;20424;-84
2021/06/07 18:12:59;;;;;;;58.57;13.70;;;26.90;5.40;;;;;;6185323;23;20451;-85
2021/06/07 18:15:34;;;;;;;57.83;12.27;;;27.10;8.80;;;;;;6180768;23;20736;-85
2021/06/07 18:18:11;;;;;;;57.53;11.90;;;26.90;8.20;;;;;;6194268;23;20423;-84
2021/06/07 18:20:51;;;;;;;58.07;12.80;;;27.20;7.60;;;;;;6195565;23;20379;-86
2021/06/07 18:23:18;;;;;;;56.70;10.20;;;27.30;7.30;;;;;;6194977;23;20527;-84
2021/06/07 18:25:48;;;;;;;57.47;10.83;;;27.00;6.60;;;;;;6195924;23;20463;-85
2021/06/07 18:28:16;;;;;;;54.27;9.70;;;26.10;8.70;;;;;;6195389;23;20943;-83
2021/06/07 18:30:43;;;;;;;59.47;11.00;;;25.60;11.30;;;;;;6185247;23;20519;-85
2021/06/07 18:33:13;;;;;;;56.07;9.00;;;26.00;10.30;;;;;;6184379;23;20696;-84
2021/06/07 18:35:46;;;;;;;59.90;8.40;;;25.40;11.20;;;;;;6195281;23;20701;-86
2021/06/07 18:38:14;;;;;;;52.47;7.53;;;25.30;12.50;;;;;;6195263;23;20484;-85
2021/06/07 18:40:42;;;;;;;52.97;8.60;;;25.70;11.40;;;;;;6195337;23;20718;-85
2021/06/07 18:43:09;;;;;;;52.87;7.67;;;25.50;10.30;;;;;;6195303;23;20413;-86
2021/06/07 18:45:46;;;;;;;53.17;7.47;;;25.60;10.80;;;;;;6195205;23;20917;-85
2021/06/07 18:48:17;;;;;;;52.33;8.63;;;25.60;10.80;;;;;;6194282;23;20413;-84
2021/06/07 18:50:54;;;;;;;54.10;8.50;;;25.60;12.00;;;;;;6195084;23;20908;-86
2021/06/07 18:53:22;;;;;;;50.33;7.37;;;25.30;13.10;;;;;;6185624;23;20705;-85
2021/06/07 18:55:49;;;;;;;52.73;8.17;;;24.70;13.90;;;;;;6195109;23;20956;-84
2021/06/07 18:58:22;;;;;;;52.03;7.80;;;24.00;15.10;;;;;;6195641;23;20428;-85
2021/06/07 19:00:55;;;;;;;51.07;7.60;;;22.90;20.20;;;;;;6185126;23;20439;-85